GMTA/AHU METAR and TAF weather

Enter ICAO airport designator
Station Type Date Time Source
GMTA METAR 2021/03/01 09:00 UTC NOAA

GMTA 010900Z 01007KT 6000 FEW022 SCT032 BKN100 15/13 Q1016 NOSIG


Station Type Date Time Source
GMTA Decoded METAR 2021/03/01 09:00 UTC NOAA

Al Hoceima, Morocco (GMTA) 35-11N 003-51W 14M
Mar 01, 2021 - 04:00 AM EST / 2021.03.01 0900 UTC
Wind: from the N (010 degrees) at 8 MPH (7 KT):0
Visibility: 3 mile(s):0
Sky conditions: mostly cloudy
Temperature: 59 F (15 C)
Dew Point: 55 F (13 C)
Relative Humidity: 87%
Pressure (altimeter): 30.00 in. Hg (1016 hPa)
ob: GMTA 010900Z 01007KT 6000 FEW022 SCT032 BKN100 15/13 Q1016 NOSIG
cycle: 9

Station Type Date Time Source
GMTA TAF 2021/03/01 06:16 UTC NOAA

TAF GMTA 010500Z 0106/0212 04004KT 9999 FEW023 SCT030

Example: see airport list